sensor_id;sensor_type;location;lat;lon;timestamp;P1;durP1;ratioP1;P2;durP2;ratioP2
56181;SDS011;51963;46.052;14.544;2023-04-03T00:02:07;1.20;;;0.98;;
56181;SDS011;51963;46.052;14.544;2023-04-03T00:04:33;2.08;;;0.98;;
56181;SDS011;51963;46.052;14.544;2023-04-03T00:06:58;1.67;;;1.13;;
56181;SDS011;51963;46.052;14.544;2023-04-03T00:09:24;1.95;;;1.08;;
56181;SDS011;51963;46.052;14.544;2023-04-03T00:11:50;2.15;;;1.00;;
56181;SDS011;51963;46.052;14.544;2023-04-03T00:14:15;1.80;;;1.00;;
56181;SDS011;51963;46.052;14.544;2023-04-03T00:16:41;1.58;;;1.33;;
56181;SDS011;51963;46.052;14.544;2023-04-03T00:19:07;1.45;;;1.00;;
56181;SDS011;51963;46.052;14.544;2023-04-03T00:21:33;1.67;;;1.30;;
56181;SDS011;51963;46.052;14.544;2023-04-03T00:24:00;2.63;;;1.52;;
56181;SDS011;51963;46.052;14.544;2023-04-03T00:26:25;1.70;;;1.52;;
56181;SDS011;51963;46.052;14.544;2023-04-03T00:28:51;2.25;;;1.40;;
56181;SDS011;51963;46.052;14.544;2023-04-03T00:31:17;2.17;;;1.42;;
56181;SDS011;51963;46.052;14.544;2023-04-03T00:33:45;2.70;;;1.55;;
56181;SDS011;51963;46.052;14.544;2023-04-03T00:36:11;2.22;;;1.73;;
56181;SDS011;51963;46.052;14.544;2023-04-03T00:38:37;2.00;;;1.80;;
56181;SDS011;51963;46.052;14.544;2023-04-03T00:41:05;2.17;;;1.73;;
56181;SDS011;51963;46.052;14.544;2023-04-03T00:43:31;2.17;;;1.67;;
56181;SDS011;51963;46.052;14.544;2023-04-03T00:45:57;2.80;;;1.80;;
56181;SDS011;51963;46.052;14.544;2023-04-03T00:48:26;2.72;;;1.98;;
56181;SDS011;51963;46.052;14.544;2023-04-03T00:50:58;1.77;;;1.50;;
56181;SDS011;51963;46.052;14.544;2023-04-03T00:53:26;1.70;;;1.55;;
56181;SDS011;51963;46.052;14.544;2023-04-03T00:55:56;2.08;;;1.60;;
56181;SDS011;51963;46.052;14.544;2023-04-03T00:58:25;3.97;;;2.47;;
56181;SDS011;51963;46.052;14.544;2023-04-03T01:01:03;3.53;;;2.40;;
56181;SDS011;51963;46.052;14.544;2023-04-03T01:03:32;3.42;;;2.47;;
56181;SDS011;51963;46.052;14.544;2023-04-03T01:06:00;2.85;;;2.30;;
56181;SDS011;51963;46.052;14.544;2023-04-03T01:08:26;2.67;;;2.13;;
56181;SDS011;51963;46.052;14.544;2023-04-03T01:10:52;3.13;;;2.47;;
56181;SDS011;51963;46.052;14.544;2023-04-03T01:13:22;4.73;;;2.43;;
56181;SDS011;51963;46.052;14.544;2023-04-03T01:15:54;3.25;;;2.38;;
56181;SDS011;51963;46.052;14.544;2023-04-03T01:18:20;6.53;;;2.67;;
56181;SDS011;51963;46.052;14.544;2023-04-03T01:23:23;3.80;;;2.53;;
56181;SDS011;51963;46.052;14.544;2023-04-03T01:25:55;4.97;;;2.58;;
56181;SDS011;51963;46.052;14.544;2023-04-03T01:28:23;3.23;;;2.37;;
56181;SDS011;51963;46.052;14.544;2023-04-03T01:33:42;2.90;;;2.13;;
56181;SDS011;51963;46.052;14.544;2023-04-03T01:36:11;3.65;;;2.28;;
56181;SDS011;51963;46.052;14.544;2023-04-03T01:38:43;4.40;;;2.35;;
56181;SDS011;51963;46.052;14.544;2023-04-03T01:41:09;3.40;;;2.38;;
56181;SDS011;51963;46.052;14.544;2023-04-03T01:43:35;2.85;;;2.25;;
56181;SDS011;51963;46.052;14.544;2023-04-03T01:46:01;3.60;;;2.25;;
56181;SDS011;51963;46.052;14.544;2023-04-03T01:48:27;3.40;;;2.30;;
56181;SDS011;51963;46.052;14.544;2023-04-03T01:50:53;2.22;;;1.90;;
56181;SDS011;51963;46.052;14.544;2023-04-03T01:53:19;2.63;;;2.17;;
56181;SDS011;51963;46.052;14.544;2023-04-03T01:55:45;2.92;;;2.20;;
56181;SDS011;51963;46.052;14.544;2023-04-03T01:58:11;3.30;;;1.95;;
56181;SDS011;51963;46.052;14.544;2023-04-03T02:00:36;3.60;;;2.20;;
56181;SDS011;51963;46.052;14.544;2023-04-03T02:03:02;2.53;;;1.92;;
56181;SDS011;51963;46.052;14.544;2023-04-03T02:05:28;2.85;;;2.20;;
56181;SDS011;51963;46.052;14.544;2023-04-03T02:07:54;2.58;;;1.90;;
56181;SDS011;51963;46.052;14.544;2023-04-03T02:10:20;5.15;;;2.30;;
56181;SDS011;51963;46.052;14.544;2023-04-03T02:12:46;2.28;;;1.83;;
56181;SDS011;51963;46.052;14.544;2023-04-03T02:15:11;2.88;;;1.90;;
56181;SDS011;51963;46.052;14.544;2023-04-03T02:17:40;2.58;;;1.92;;
56181;SDS011;51963;46.052;14.544;2023-04-03T02:20:06;3.80;;;2.13;;
56181;SDS011;51963;46.052;14.544;2023-04-03T02:22:33;2.28;;;1.65;;
56181;SDS011;51963;46.052;14.544;2023-04-03T02:24:59;2.47;;;1.88;;
56181;SDS011;51963;46.052;14.544;2023-04-03T02:27:26;2.83;;;2.10;;
56181;SDS011;51963;46.052;14.544;2023-04-03T02:29:52;2.80;;;2.22;;
56181;SDS011;51963;46.052;14.544;2023-04-03T02:32:18;2.88;;;2.25;;
56181;SDS011;51963;46.052;14.544;2023-04-03T02:34:46;3.17;;;2.22;;
56181;SDS011;51963;46.052;14.544;2023-04-03T02:37:12;2.70;;;2.20;;
56181;SDS011;51963;46.052;14.544;2023-04-03T02:39:38;2.55;;;2.28;;
56181;SDS011;51963;46.052;14.544;2023-04-03T02:42:04;2.72;;;2.00;;
56181;SDS011;51963;46.052;14.544;2023-04-03T02:44:30;4.20;;;2.30;;
56181;SDS011;51963;46.052;14.544;2023-04-03T02:46:56;3.15;;;2.30;;
56181;SDS011;51963;46.052;14.544;2023-04-03T02:49:22;3.15;;;1.95;;
56181;SDS011;51963;46.052;14.544;2023-04-03T02:51:48;3.65;;;2.38;;
56181;SDS011;51963;46.052;14.544;2023-04-03T02:54:13;3.75;;;2.38;;
56181;SDS011;51963;46.052;14.544;2023-04-03T02:56:44;3.72;;;2.25;;
56181;SDS011;51963;46.052;14.544;2023-04-03T02:59:10;3.45;;;2.30;;
56181;SDS011;51963;46.052;14.544;2023-04-03T03:01:37;3.45;;;2.15;;
56181;SDS011;51963;46.052;14.544;2023-04-03T03:04:03;2.97;;;2.22;;
56181;SDS011;51963;46.052;14.544;2023-04-03T03:06:29;3.10;;;2.17;;
56181;SDS011;51963;46.052;14.544;2023-04-03T03:08:55;2.90;;;2.13;;
56181;SDS011;51963;46.052;14.544;2023-04-03T03:11:20;3.42;;;2.55;;
56181;SDS011;51963;46.052;14.544;2023-04-03T03:13:46;4.07;;;2.50;;
56181;SDS011;51963;46.052;14.544;2023-04-03T03:16:12;4.05;;;2.20;;
56181;SDS011;51963;46.052;14.544;2023-04-03T03:18:38;4.30;;;2.50;;
56181;SDS011;51963;46.052;14.544;2023-04-03T03:21:03;3.70;;;2.38;;
56181;SDS011;51963;46.052;14.544;2023-04-03T03:23:30;3.63;;;2.45;;
56181;SDS011;51963;46.052;14.544;2023-04-03T03:25:58;3.73;;;2.43;;
56181;SDS011;51963;46.052;14.544;2023-04-03T03:30:51;3.60;;;2.38;;
56181;SDS011;51963;46.052;14.544;2023-04-03T03:33:18;5.88;;;2.70;;
56181;SDS011;51963;46.052;14.544;2023-04-03T03:35:44;4.55;;;2.40;;
56181;SDS011;51963;46.052;14.544;2023-04-03T03:38:11;4.85;;;2.22;;
56181;SDS011;51963;46.052;14.544;2023-04-03T03:40:39;4.05;;;2.58;;
56181;SDS011;51963;46.052;14.544;2023-04-03T03:43:05;4.30;;;2.78;;
56181;SDS011;51963;46.052;14.544;2023-04-03T03:45:31;4.38;;;2.40;;
56181;SDS011;51963;46.052;14.544;2023-04-03T03:47:57;2.65;;;2.20;;
56181;SDS011;51963;46.052;14.544;2023-04-03T03:50:23;3.85;;;2.45;;
56181;SDS011;51963;46.052;14.544;2023-04-03T03:52:49;4.35;;;2.53;;
56181;SDS011;51963;46.052;14.544;2023-04-03T03:55:15;4.85;;;2.63;;
56181;SDS011;51963;46.052;14.544;2023-04-03T03:57:45;4.70;;;3.10;;
56181;SDS011;51963;46.052;14.544;2023-04-03T04:00:11;4.53;;;2.08;;
56181;SDS011;51963;46.052;14.544;2023-04-03T04:02:50;3.40;;;2.38;;
56181;SDS011;51963;46.052;14.544;2023-04-03T04:07:45;3.58;;;1.98;;
56181;SDS011;51963;46.052;14.544;2023-04-03T04:10:12;4.10;;;2.67;;
56181;SDS011;51963;46.052;14.544;2023-04-03T04:12:39;4.00;;;2.50;;
56181;SDS011;51963;46.052;14.544;2023-04-03T04:15:05;5.68;;;3.05;;
56181;SDS011;51963;46.052;14.544;2023-04-03T04:17:32;6.10;;;2.70;;
56181;SDS011;51963;46.052;14.544;2023-04-03T04:19:58;3.40;;;2.53;;
56181;SDS011;51963;46.052;14.544;2023-04-03T04:22:23;3.90;;;2.58;;
56181;SDS011;51963;46.052;14.544;2023-04-03T04:24:49;3.83;;;2.75;;
56181;SDS011;51963;46.052;14.544;2023-04-03T04:27:15;3.90;;;2.45;;
56181;SDS011;51963;46.052;14.544;2023-04-03T04:29:41;3.35;;;2.38;;
56181;SDS011;51963;46.052;14.544;2023-04-03T04:32:07;3.83;;;2.85;;
56181;SDS011;51963;46.052;14.544;2023-04-03T04:34:34;4.85;;;2.80;;
56181;SDS011;51963;46.052;14.544;2023-04-03T04:37:00;4.05;;;3.10;;
56181;SDS011;51963;46.052;14.544;2023-04-03T04:39:26;5.57;;;3.00;;
56181;SDS011;51963;46.052;14.544;2023-04-03T04:41:55;4.57;;;3.13;;
56181;SDS011;51963;46.052;14.544;2023-04-03T04:44:22;4.88;;;2.80;;
56181;SDS011;51963;46.052;14.544;2023-04-03T04:46:47;3.30;;;2.30;;
56181;SDS011;51963;46.052;14.544;2023-04-03T04:49:13;3.70;;;2.38;;
56181;SDS011;51963;46.052;14.544;2023-04-03T04:51:39;5.55;;;3.10;;
56181;SDS011;51963;46.052;14.544;2023-04-03T04:54:05;3.78;;;2.40;;
56181;SDS011;51963;46.052;14.544;2023-04-03T04:56:31;3.40;;;2.63;;
56181;SDS011;51963;46.052;14.544;2023-04-03T04:58:58;5.47;;;2.90;;
56181;SDS011;51963;46.052;14.544;2023-04-03T05:01:25;6.80;;;2.95;;
56181;SDS011;51963;46.052;14.544;2023-04-03T05:03:57;4.13;;;2.45;;
56181;SDS011;51963;46.052;14.544;2023-04-03T05:06:24;5.43;;;2.72;;
56181;SDS011;51963;46.052;14.544;2023-04-03T05:08:50;4.80;;;2.58;;
56181;SDS011;51963;46.052;14.544;2023-04-03T05:11:17;4.47;;;2.58;;
56181;SDS011;51963;46.052;14.544;2023-04-03T05:13:43;3.85;;;2.47;;
56181;SDS011;51963;46.052;14.544;2023-04-03T05:16:10;4.03;;;2.60;;
56181;SDS011;51963;46.052;14.544;2023-04-03T05:18:37;5.18;;;2.50;;
56181;SDS011;51963;46.052;14.544;2023-04-03T05:21:08;3.50;;;2.38;;
56181;SDS011;51963;46.052;14.544;2023-04-03T05:23:34;5.25;;;3.15;;
56181;SDS011;51963;46.052;14.544;2023-04-03T05:26:01;4.50;;;2.65;;
56181;SDS011;51963;46.052;14.544;2023-04-03T05:28:28;5.97;;;2.42;;
56181;SDS011;51963;46.052;14.544;2023-04-03T05:30:54;3.50;;;2.42;;
56181;SDS011;51963;46.052;14.544;2023-04-03T05:33:21;6.03;;;2.30;;
56181;SDS011;51963;46.052;14.544;2023-04-03T05:35:51;4.07;;;2.40;;
56181;SDS011;51963;46.052;14.544;2023-04-03T05:38:22;4.82;;;2.63;;
56181;SDS011;51963;46.052;14.544;2023-04-03T05:40:49;4.40;;;2.53;;
56181;SDS011;51963;46.052;14.544;2023-04-03T05:43:15;4.03;;;2.58;;
56181;SDS011;51963;46.052;14.544;2023-04-03T05:45:42;4.50;;;2.25;;
56181;SDS011;51963;46.052;14.544;2023-04-03T05:48:08;5.20;;;2.10;;
56181;SDS011;51963;46.052;14.544;2023-04-03T05:50:35;3.33;;;2.45;;
56181;SDS011;51963;46.052;14.544;2023-04-03T05:53:07;3.47;;;2.00;;
56181;SDS011;51963;46.052;14.544;2023-04-03T05:55:40;3.83;;;2.55;;
56181;SDS011;51963;46.052;14.544;2023-04-03T05:58:06;3.47;;;2.25;;
56181;SDS011;51963;46.052;14.544;2023-04-03T06:00:34;4.45;;;2.17;;
56181;SDS011;51963;46.052;14.544;2023-04-03T06:03:02;3.65;;;2.33;;
56181;SDS011;51963;46.052;14.544;2023-04-03T06:05:28;3.70;;;2.20;;
56181;SDS011;51963;46.052;14.544;2023-04-03T06:07:54;4.07;;;2.38;;
56181;SDS011;51963;46.052;14.544;2023-04-03T06:10:21;4.25;;;2.25;;
56181;SDS011;51963;46.052;14.544;2023-04-03T06:12:46;2.78;;;1.65;;
56181;SDS011;51963;46.052;14.544;2023-04-03T06:15:13;2.92;;;1.70;;
56181;SDS011;51963;46.052;14.544;2023-04-03T06:17:39;2.75;;;1.90;;
56181;SDS011;51963;46.052;14.544;2023-04-03T06:20:06;4.15;;;1.83;;
56181;SDS011;51963;46.052;14.544;2023-04-03T06:22:33;4.18;;;2.00;;
56181;SDS011;51963;46.052;14.544;2023-04-03T06:25:00;3.60;;;2.00;;
56181;SDS011;51963;46.052;14.544;2023-04-03T06:27:29;4.60;;;2.05;;
56181;SDS011;51963;46.052;14.544;2023-04-03T06:29:55;2.30;;;1.90;;
56181;SDS011;51963;46.052;14.544;2023-04-03T06:32:21;3.60;;;2.08;;
56181;SDS011;51963;46.052;14.544;2023-04-03T06:34:47;3.70;;;1.90;;
56181;SDS011;51963;46.052;14.544;2023-04-03T06:37:20;2.58;;;1.83;;
56181;SDS011;51963;46.052;14.544;2023-04-03T06:39:47;3.22;;;1.73;;
56181;SDS011;51963;46.052;14.544;2023-04-03T06:42:13;2.25;;;1.50;;
56181;SDS011;51963;46.052;14.544;2023-04-03T06:44:47;3.28;;;2.05;;
56181;SDS011;51963;46.052;14.544;2023-04-03T06:47:14;2.70;;;1.65;;
56181;SDS011;51963;46.052;14.544;2023-04-03T06:49:40;2.70;;;1.67;;
56181;SDS011;51963;46.052;14.544;2023-04-03T06:52:07;3.10;;;1.60;;
56181;SDS011;51963;46.052;14.544;2023-04-03T06:54:33;3.30;;;1.80;;
56181;SDS011;51963;46.052;14.544;2023-04-03T06:56:59;2.80;;;1.83;;
56181;SDS011;51963;46.052;14.544;2023-04-03T06:59:25;3.13;;;1.20;;
56181;SDS011;51963;46.052;14.544;2023-04-03T07:01:51;2.90;;;1.60;;
56181;SDS011;51963;46.052;14.544;2023-04-03T07:04:17;1.88;;;1.25;;
56181;SDS011;51963;46.052;14.544;2023-04-03T07:06:43;2.45;;;1.10;;
56181;SDS011;51963;46.052;14.544;2023-04-03T07:09:09;1.65;;;1.05;;
56181;SDS011;51963;46.052;14.544;2023-04-03T07:11:35;2.08;;;1.27;;
56181;SDS011;51963;46.052;14.544;2023-04-03T07:14:02;1.33;;;1.05;;
56181;SDS011;51963;46.052;14.544;2023-04-03T07:16:27;3.50;;;1.20;;
56181;SDS011;51963;46.052;14.544;2023-04-03T07:18:56;2.05;;;1.30;;
56181;SDS011;51963;46.052;14.544;2023-04-03T07:21:22;1.85;;;1.02;;
56181;SDS011;51963;46.052;14.544;2023-04-03T07:23:48;1.23;;;1.02;;
56181;SDS011;51963;46.052;14.544;2023-04-03T07:26:16;2.38;;;1.20;;
56181;SDS011;51963;46.052;14.544;2023-04-03T07:28:43;1.65;;;1.35;;
56181;SDS011;51963;46.052;14.544;2023-04-03T07:31:12;2.25;;;1.05;;
56181;SDS011;51963;46.052;14.544;2023-04-03T07:33:39;1.75;;;0.90;;
56181;SDS011;51963;46.052;14.544;2023-04-03T07:36:06;1.40;;;1.08;;
56181;SDS011;51963;46.052;14.544;2023-04-03T07:38:32;2.42;;;0.90;;
56181;SDS011;51963;46.052;14.544;2023-04-03T07:40:59;1.40;;;0.75;;
56181;SDS011;51963;46.052;14.544;2023-04-03T07:43:25;1.25;;;0.75;;
56181;SDS011;51963;46.052;14.544;2023-04-03T07:45:51;1.25;;;0.90;;
56181;SDS011;51963;46.052;14.544;2023-04-03T07:48:18;2.25;;;1.40;;
56181;SDS011;51963;46.052;14.544;2023-04-03T07:50:45;1.88;;;0.90;;
56181;SDS011;51963;46.052;14.544;2023-04-03T07:53:11;2.10;;;0.90;;
56181;SDS011;51963;46.052;14.544;2023-04-03T07:55:37;1.63;;;0.73;;
56181;SDS011;51963;46.052;14.544;2023-04-03T07:58:11;1.50;;;0.57;;
56181;SDS011;51963;46.052;14.544;2023-04-03T08:00:39;1.35;;;0.80;;
56181;SDS011;51963;46.052;14.544;2023-04-03T08:03:06;1.10;;;0.80;;
56181;SDS011;51963;46.052;14.544;2023-04-03T08:05:36;1.98;;;0.70;;
56181;SDS011;51963;46.052;14.544;2023-04-03T08:08:04;1.38;;;0.95;;
56181;SDS011;51963;46.052;14.544;2023-04-03T08:10:31;3.15;;;0.98;;
56181;SDS011;51963;46.052;14.544;2023-04-03T08:12:56;3.17;;;0.93;;
56181;SDS011;51963;46.052;14.544;2023-04-03T08:15:22;2.53;;;1.10;;
56181;SDS011;51963;46.052;14.544;2023-04-03T08:17:48;1.35;;;0.80;;
56181;SDS011;51963;46.052;14.544;2023-04-03T08:20:14;1.20;;;0.80;;
56181;SDS011;51963;46.052;14.544;2023-04-03T08:22:40;1.02;;;0.80;;
56181;SDS011;51963;46.052;14.544;2023-04-03T08:25:06;2.83;;;1.10;;
56181;SDS011;51963;46.052;14.544;2023-04-03T08:27:32;6.45;;;1.00;;
56181;SDS011;51963;46.052;14.544;2023-04-03T08:29:57;1.38;;;0.80;;
56181;SDS011;51963;46.052;14.544;2023-04-03T08:32:23;1.08;;;0.63;;
56181;SDS011;51963;46.052;14.544;2023-04-03T08:34:49;2.20;;;0.65;;
56181;SDS011;51963;46.052;14.544;2023-04-03T08:37:15;1.75;;;0.60;;
56181;SDS011;51963;46.052;14.544;2023-04-03T08:39:41;1.08;;;0.60;;
56181;SDS011;51963;46.052;14.544;2023-04-03T08:42:16;1.95;;;0.60;;
56181;SDS011;51963;46.052;14.544;2023-04-03T08:44:59;1.80;;;0.80;;
56181;SDS011;51963;46.052;14.544;2023-04-03T08:47:45;0.93;;;0.70;;
56181;SDS011;51963;46.052;14.544;2023-04-03T08:50:20;0.75;;;0.55;;
56181;SDS011;51963;46.052;14.544;2023-04-03T08:52:57;1.90;;;0.60;;
56181;SDS011;51963;46.052;14.544;2023-04-03T08:55:25;1.17;;;0.70;;
56181;SDS011;51963;46.052;14.544;2023-04-03T08:58:01;0.80;;;0.60;;
56181;SDS011;51963;46.052;14.544;2023-04-03T09:00:30;2.05;;;0.90;;
56181;SDS011;51963;46.052;14.544;2023-04-03T09:03:04;1.40;;;0.60;;
56181;SDS011;51963;46.052;14.544;2023-04-03T09:05:32;2.45;;;0.82;;
56181;SDS011;51963;46.052;14.544;2023-04-03T09:08:31;1.10;;;0.63;;
56181;SDS011;51963;46.052;14.544;2023-04-03T09:11:09;1.00;;;0.50;;
56181;SDS011;51963;46.052;14.544;2023-04-03T09:16:58;0.73;;;0.40;;
56181;SDS011;51963;46.052;14.544;2023-04-03T09:21:46;0.57;;;0.40;;
56181;SDS011;51963;46.052;14.544;2023-04-03T09:24:12;2.55;;;0.60;;
56181;SDS011;51963;46.052;14.544;2023-04-03T09:29:27;0.53;;;0.53;;
56181;SDS011;51963;46.052;14.544;2023-04-03T09:31:57;1.13;;;0.95;;
56181;SDS011;51963;46.052;14.544;2023-04-03T09:34:26;1.88;;;0.57;;
56181;SDS011;51963;46.052;14.544;2023-04-03T09:36:56;2.13;;;0.43;;
56181;SDS011;51963;46.052;14.544;2023-04-03T09:39:25;0.88;;;0.50;;
56181;SDS011;51963;46.052;14.544;2023-04-03T09:44:35;0.75;;;0.50;;
56181;SDS011;51963;46.052;14.544;2023-04-03T09:49:50;1.50;;;0.60;;
56181;SDS011;51963;46.052;14.544;2023-04-03T09:52:34;0.60;;;0.60;;
56181;SDS011;51963;46.052;14.544;2023-04-03T09:55:10;0.50;;;0.40;;
56181;SDS011;51963;46.052;14.544;2023-04-03T09:57:42;2.80;;;0.60;;
56181;SDS011;51963;46.052;14.544;2023-04-03T10:00:33;1.30;;;0.60;;
56181;SDS011;51963;46.052;14.544;2023-04-03T10:03:00;1.30;;;0.70;;
56181;SDS011;51963;46.052;14.544;2023-04-03T10:08:22;2.10;;;0.57;;
56181;SDS011;51963;46.052;14.544;2023-04-03T10:11:09;0.95;;;0.50;;
56181;SDS011;51963;46.052;14.544;2023-04-03T10:22:00;1.00;;;0.70;;
56181;SDS011;51963;46.052;14.544;2023-04-03T10:27:24;0.60;;;0.45;;
56181;SDS011;51963;46.052;14.544;2023-04-03T10:30:20;0.82;;;0.60;;
56181;SDS011;51963;46.052;14.544;2023-04-03T10:36:02;1.52;;;0.50;;
56181;SDS011;51963;46.052;14.544;2023-04-03T10:53:29;0.70;;;0.50;;
56181;SDS011;51963;46.052;14.544;2023-04-03T10:56:13;0.50;;;0.50;;
56181;SDS011;51963;46.052;14.544;2023-04-03T10:58:51;2.15;;;0.57;;
56181;SDS011;51963;46.052;14.544;2023-04-03T11:01:24;1.00;;;0.77;;
56181;SDS011;51963;46.052;14.544;2023-04-03T11:03:57;1.02;;;0.70;;
56181;SDS011;51963;46.052;14.544;2023-04-03T11:06:26;0.57;;;0.50;;
56181;SDS011;51963;46.052;14.544;2023-04-03T11:09:00;1.25;;;0.63;;
56181;SDS011;51963;46.052;14.544;2023-04-03T11:11:33;0.93;;;0.55;;
56181;SDS011;51963;46.052;14.544;2023-04-03T11:14:20;3.42;;;0.60;;
56181;SDS011;51963;46.052;14.544;2023-04-03T11:16:55;0.80;;;0.40;;
56181;SDS011;51963;46.052;14.544;2023-04-03T11:19:38;2.00;;;0.70;;
56181;SDS011;51963;46.052;14.544;2023-04-03T11:24:51;1.15;;;0.70;;
56181;SDS011;51963;46.052;14.544;2023-04-03T11:27:24;0.80;;;0.60;;
56181;SDS011;51963;46.052;14.544;2023-04-03T11:29:52;1.73;;;0.73;;
56181;SDS011;51963;46.052;14.544;2023-04-03T11:35:19;0.63;;;0.40;;
56181;SDS011;51963;46.052;14.544;2023-04-03T11:37:50;0.70;;;0.50;;
56181;SDS011;51963;46.052;14.544;2023-04-03T11:40:22;0.60;;;0.40;;
56181;SDS011;51963;46.052;14.544;2023-04-03T11:42:52;0.80;;;0.50;;
56181;SDS011;51963;46.052;14.544;2023-04-03T11:48:02;0.93;;;0.50;;
56181;SDS011;51963;46.052;14.544;2023-04-03T11:50:51;1.10;;;0.45;;
56181;SDS011;51963;46.052;14.544;2023-04-03T12:01:43;0.60;;;0.52;;
56181;SDS011;51963;46.052;14.544;2023-04-03T12:04:11;0.88;;;0.52;;
56181;SDS011;51963;46.052;14.544;2023-04-03T12:06:52;0.85;;;0.50;;
56181;SDS011;51963;46.052;14.544;2023-04-03T12:09:28;0.95;;;0.50;;
56181;SDS011;51963;46.052;14.544;2023-04-03T12:11:59;0.75;;;0.50;;
56181;SDS011;51963;46.052;14.544;2023-04-03T12:14:27;0.50;;;0.50;;
56181;SDS011;51963;46.052;14.544;2023-04-03T12:16:54;1.13;;;0.57;;
56181;SDS011;51963;46.052;14.544;2023-04-03T12:19:38;1.85;;;0.70;;
56181;SDS011;51963;46.052;14.544;2023-04-03T12:22:11;1.88;;;0.52;;
56181;SDS011;51963;46.052;14.544;2023-04-03T12:24:39;2.55;;;0.55;;
56181;SDS011;51963;46.052;14.544;2023-04-03T12:29:50;1.48;;;0.63;;
56181;SDS011;51963;46.052;14.544;2023-04-03T12:43:43;0.45;;;0.45;;
56181;SDS011;51963;46.052;14.544;2023-04-03T12:46:16;2.38;;;0.60;;
56181;SDS011;51963;46.052;14.544;2023-04-03T12:51:18;0.60;;;0.60;;
56181;SDS011;51963;46.052;14.544;2023-04-03T12:53:47;0.77;;;0.50;;
56181;SDS011;51963;46.052;14.544;2023-04-03T12:56:22;1.58;;;0.50;;
56181;SDS011;51963;46.052;14.544;2023-04-03T12:59:13;0.50;;;0.40;;
56181;SDS011;51963;46.052;14.544;2023-04-03T13:01:41;0.95;;;0.57;;
56181;SDS011;51963;46.052;14.544;2023-04-03T13:04:09;0.73;;;0.50;;
56181;SDS011;51963;46.052;14.544;2023-04-03T13:06:38;1.25;;;0.50;;
56181;SDS011;51963;46.052;14.544;2023-04-03T13:09:14;0.65;;;0.50;;
56181;SDS011;51963;46.052;14.544;2023-04-03T13:11:46;0.50;;;0.40;;
56181;SDS011;51963;46.052;14.544;2023-04-03T13:14:16;1.65;;;0.50;;
56181;SDS011;51963;46.052;14.544;2023-04-03T13:16:52;0.40;;;0.40;;
56181;SDS011;51963;46.052;14.544;2023-04-03T13:19:24;2.25;;;0.43;;
56181;SDS011;51963;46.052;14.544;2023-04-03T13:21:59;0.70;;;0.70;;
56181;SDS011;51963;46.052;14.544;2023-04-03T13:24:47;0.45;;;0.40;;
56181;SDS011;51963;46.052;14.544;2023-04-03T13:27:16;0.73;;;0.40;;
56181;SDS011;51963;46.052;14.544;2023-04-03T13:29:42;1.42;;;0.60;;
56181;SDS011;51963;46.052;14.544;2023-04-03T13:32:22;0.82;;;0.47;;
56181;SDS011;51963;46.052;14.544;2023-04-03T13:42:20;0.90;;;0.52;;
56181;SDS011;51963;46.052;14.544;2023-04-03T13:44:48;1.77;;;0.50;;
56181;SDS011;51963;46.052;14.544;2023-04-03T13:49:43;0.75;;;0.50;;
56181;SDS011;51963;46.052;14.544;2023-04-03T13:52:28;1.13;;;0.50;;
56181;SDS011;51963;46.052;14.544;2023-04-03T13:55:02;2.35;;;0.52;;
56181;SDS011;51963;46.052;14.544;2023-04-03T13:57:59;0.73;;;0.50;;
56181;SDS011;51963;46.052;14.544;2023-04-03T14:02:56;0.85;;;0.55;;
56181;SDS011;51963;46.052;14.544;2023-04-03T14:05:22;0.47;;;0.45;;
56181;SDS011;51963;46.052;14.544;2023-04-03T14:07:51;1.85;;;0.60;;
56181;SDS011;51963;46.052;14.544;2023-04-03T14:10:24;3.05;;;0.80;;
56181;SDS011;51963;46.052;14.544;2023-04-03T14:12:50;2.53;;;0.65;;
56181;SDS011;51963;46.052;14.544;2023-04-03T14:17:42;1.25;;;0.70;;
56181;SDS011;51963;46.052;14.544;2023-04-03T14:20:13;0.52;;;0.50;;
56181;SDS011;51963;46.052;14.544;2023-04-03T14:22:41;1.63;;;0.52;;
56181;SDS011;51963;46.052;14.544;2023-04-03T14:25:07;1.65;;;0.63;;
56181;SDS011;51963;46.052;14.544;2023-04-03T14:27:41;2.25;;;0.55;;
56181;SDS011;51963;46.052;14.544;2023-04-03T14:30:14;2.20;;;0.57;;
56181;SDS011;51963;46.052;14.544;2023-04-03T14:32:46;0.73;;;0.50;;
56181;SDS011;51963;46.052;14.544;2023-04-03T14:35:12;1.75;;;0.60;;
56181;SDS011;51963;46.052;14.544;2023-04-03T14:37:39;1.70;;;0.80;;
56181;SDS011;51963;46.052;14.544;2023-04-03T14:40:05;1.02;;;0.70;;
56181;SDS011;51963;46.052;14.544;2023-04-03T14:42:41;1.08;;;0.70;;
56181;SDS011;51963;46.052;14.544;2023-04-03T14:45:08;1.58;;;0.52;;
56181;SDS011;51963;46.052;14.544;2023-04-03T14:47:37;0.75;;;0.60;;
56181;SDS011;51963;46.052;14.544;2023-04-03T14:50:11;1.75;;;0.70;;
56181;SDS011;51963;46.052;14.544;2023-04-03T14:52:46;1.52;;;0.50;;
56181;SDS011;51963;46.052;14.544;2023-04-03T14:55:17;1.55;;;0.80;;
56181;SDS011;51963;46.052;14.544;2023-04-03T14:57:45;0.90;;;0.70;;
56181;SDS011;51963;46.052;14.544;2023-04-03T15:00:13;3.03;;;0.82;;
56181;SDS011;51963;46.052;14.544;2023-04-03T15:02:40;1.52;;;0.60;;
56181;SDS011;51963;46.052;14.544;2023-04-03T15:05:08;0.70;;;0.60;;
56181;SDS011;51963;46.052;14.544;2023-04-03T15:07:49;0.90;;;0.60;;
56181;SDS011;51963;46.052;14.544;2023-04-03T15:10:22;1.00;;;0.63;;
56181;SDS011;51963;46.052;14.544;2023-04-03T15:13:01;0.75;;;0.70;;
56181;SDS011;51963;46.052;14.544;2023-04-03T15:15:28;1.88;;;0.70;;
56181;SDS011;51963;46.052;14.544;2023-04-03T15:17:55;0.80;;;0.70;;
56181;SDS011;51963;46.052;14.544;2023-04-03T15:20:23;1.00;;;0.65;;
56181;SDS011;51963;46.052;14.544;2023-04-03T15:22:50;1.02;;;0.60;;
56181;SDS011;51963;46.052;14.544;2023-04-03T15:25:16;1.30;;;0.70;;
56181;SDS011;51963;46.052;14.544;2023-04-03T15:27:43;1.23;;;0.70;;
56181;SDS011;51963;46.052;14.544;2023-04-03T15:30:14;2.92;;;0.95;;
56181;SDS011;51963;46.052;14.544;2023-04-03T15:32:41;1.35;;;0.70;;
56181;SDS011;51963;46.052;14.544;2023-04-03T15:35:07;2.22;;;0.80;;
56181;SDS011;51963;46.052;14.544;2023-04-03T15:37:33;2.67;;;0.80;;
56181;SDS011;51963;46.052;14.544;2023-04-03T15:39:59;1.90;;;0.80;;
56181;SDS011;51963;46.052;14.544;2023-04-03T15:42:25;1.60;;;0.80;;
56181;SDS011;51963;46.052;14.544;2023-04-03T15:44:51;0.77;;;0.60;;
56181;SDS011;51963;46.052;14.544;2023-04-03T15:47:17;1.58;;;0.80;;
56181;SDS011;51963;46.052;14.544;2023-04-03T15:49:43;2.05;;;0.75;;
56181;SDS011;51963;46.052;14.544;2023-04-03T15:52:09;1.80;;;0.93;;
56181;SDS011;51963;46.052;14.544;2023-04-03T15:54:35;0.95;;;0.68;;
56181;SDS011;51963;46.052;14.544;2023-04-03T15:57:00;1.88;;;0.70;;
56181;SDS011;51963;46.052;14.544;2023-04-03T15:59:26;1.23;;;0.60;;
56181;SDS011;51963;46.052;14.544;2023-04-03T16:01:57;2.28;;;0.70;;
56181;SDS011;51963;46.052;14.544;2023-04-03T16:06:51;3.58;;;0.70;;
56181;SDS011;51963;46.052;14.544;2023-04-03T16:09:17;1.30;;;0.85;;
56181;SDS011;51963;46.052;14.544;2023-04-03T16:11:43;0.80;;;0.60;;
56181;SDS011;51963;46.052;14.544;2023-04-03T16:16:37;0.85;;;0.60;;
56181;SDS011;51963;46.052;14.544;2023-04-03T16:19:03;1.60;;;0.55;;
56181;SDS011;51963;46.052;14.544;2023-04-03T16:21:30;1.65;;;0.75;;
56181;SDS011;51963;46.052;14.544;2023-04-03T16:23:58;2.80;;;0.82;;
56181;SDS011;51963;46.052;14.544;2023-04-03T16:26:26;2.22;;;0.88;;
56181;SDS011;51963;46.052;14.544;2023-04-03T16:28:52;2.95;;;1.10;;
56181;SDS011;51963;46.052;14.544;2023-04-03T16:31:19;1.80;;;0.80;;
56181;SDS011;51963;46.052;14.544;2023-04-03T16:33:45;0.73;;;0.60;;